createdAt,value
2018-01-03T00:01:25.083Z,1.67
2018-01-03T00:03:53.450Z,1.43
2018-01-03T00:06:21.053Z,2.00
2018-01-03T00:08:48.587Z,1.57
2018-01-03T00:11:16.173Z,1.10
2018-01-03T00:13:43.708Z,1.40
2018-01-03T00:16:11.248Z,1.30
2018-01-03T00:18:38.990Z,1.70
2018-01-03T00:21:06.539Z,1.40
2018-01-03T00:23:34.088Z,1.33
2018-01-03T00:26:03.541Z,1.70
2018-01-03T00:28:31.789Z,1.73
2018-01-03T00:30:59.343Z,1.67
2018-01-03T00:33:26.906Z,1.17
2018-01-03T00:35:54.466Z,1.67
2018-01-03T00:38:22.163Z,1.90
2018-01-03T00:40:49.746Z,1.40
2018-01-03T00:43:18.064Z,1.30
2018-01-03T00:45:45.622Z,2.43
2018-01-03T00:48:13.187Z,1.73
2018-01-03T00:50:40.907Z,1.80
2018-01-03T00:53:08.444Z,1.30
2018-01-03T00:55:37.539Z,1.27
2018-01-03T00:58:05.072Z,1.23
2018-01-03T01:00:32.662Z,1.53
2018-01-03T01:03:00.346Z,1.30
2018-01-03T01:05:28.655Z,1.30
2018-01-03T01:08:00.887Z,1.00
2018-01-03T01:10:28.634Z,1.10
2018-01-03T01:12:56.191Z,2.07
2018-01-03T01:15:23.976Z,1.60
2018-01-03T01:17:51.570Z,1.70
2018-01-03T01:20:19.108Z,1.27
2018-01-03T01:22:47.428Z,1.10
2018-01-03T01:25:15.153Z,1.20
2018-01-03T01:27:42.702Z,1.00
2018-01-03T01:30:10.296Z,0.97
2018-01-03T01:32:38.680Z,0.87
2018-01-03T01:35:06.273Z,1.00
2018-01-03T01:37:34.338Z,1.00
2018-01-03T01:40:02.296Z,1.30
2018-01-03T01:42:29.843Z,0.90
2018-01-03T01:44:57.512Z,1.00
2018-01-03T01:47:25.082Z,1.17
2018-01-03T01:49:52.645Z,1.10
2018-01-03T01:52:20.215Z,1.43
2018-01-03T01:54:47.887Z,1.10
2018-01-03T01:57:21.189Z,1.63
2018-01-03T01:59:48.762Z,0.90
2018-01-03T02:02:16.340Z,1.33
2018-01-03T02:04:44.682Z,0.80
2018-01-03T02:07:12.251Z,0.97
2018-01-03T02:09:40.706Z,0.83
2018-01-03T02:12:09.036Z,1.03
2018-01-03T02:14:37.355Z,1.00
2018-01-03T02:17:04.944Z,0.87
2018-01-03T02:19:32.501Z,0.70
2018-01-03T02:22:00.046Z,1.53
2018-01-03T02:24:27.933Z,1.07
2018-01-03T02:26:55.512Z,0.90
2018-01-03T02:29:24.055Z,1.20
2018-01-03T02:31:51.647Z,1.10
2018-01-03T02:34:19.211Z,1.30
2018-01-03T02:36:46.756Z,1.00
2018-01-03T02:39:14.360Z,1.93
2018-01-03T02:41:42.972Z,0.90
2018-01-03T02:44:10.515Z,1.00
2018-01-03T02:46:38.094Z,0.97
2018-01-03T02:49:05.662Z,1.00
2018-01-03T02:51:33.232Z,1.20
2018-01-03T02:54:01.183Z,0.97
2018-01-03T02:56:28.741Z,0.83
2018-01-03T02:58:56.323Z,1.03
2018-01-03T03:01:24.121Z,3.37
2018-01-03T03:03:51.723Z,0.97
2018-01-03T03:06:19.268Z,1.20
2018-01-03T03:08:46.844Z,1.23
2018-01-03T03:11:14.411Z,1.37
2018-01-03T03:13:42.705Z,1.30
2018-01-03T03:16:10.308Z,1.03
2018-01-03T03:18:38.903Z,1.80
2018-01-03T03:21:06.456Z,1.30
2018-01-03T03:23:34.827Z,1.20
2018-01-03T03:26:02.372Z,1.60
2018-01-03T03:28:29.991Z,1.23
2018-01-03T03:30:57.559Z,1.43
2018-01-03T03:33:25.119Z,1.47
2018-01-03T03:35:52.770Z,2.53
2018-01-03T03:38:20.365Z,1.70
2018-01-03T03:40:47.907Z,2.57
2018-01-03T03:43:15.991Z,1.87
2018-01-03T03:45:45.106Z,1.70
2018-01-03T03:48:13.424Z,1.67
2018-01-03T03:50:41.400Z,1.80
2018-01-03T03:53:09.328Z,2.70
2018-01-03T03:55:36.914Z,2.00
2018-01-03T03:58:04.494Z,1.73
2018-01-03T04:00:32.080Z,1.77
2018-01-03T04:02:59.659Z,1.67
2018-01-03T04:05:27.228Z,1.67
2018-01-03T04:07:55.089Z,2.30
2018-01-03T04:10:22.636Z,2.27
2018-01-03T04:12:50.210Z,2.60
2018-01-03T04:15:17.954Z,2.03
2018-01-03T04:17:45.998Z,2.33
2018-01-03T04:20:13.585Z,2.07
2018-01-03T04:22:42.093Z,2.43
2018-01-03T04:25:09.658Z,2.30
2018-01-03T04:27:37.222Z,2.13
2018-01-03T04:30:05.068Z,2.53
2018-01-03T04:32:33.600Z,1.70
2018-01-03T04:35:01.905Z,2.17
2018-01-03T04:37:29.492Z,2.40
2018-01-03T04:39:57.036Z,1.90
2018-01-03T04:42:24.597Z,2.20
2018-01-03T04:44:52.423Z,2.23
2018-01-03T04:47:19.990Z,2.73
2018-01-03T04:49:47.964Z,2.20
2018-01-03T04:52:15.709Z,1.83
2018-01-03T04:54:44.057Z,2.10
2018-01-03T04:57:11.786Z,2.10
2018-01-03T04:59:39.554Z,2.60
2018-01-03T05:02:07.112Z,2.30
2018-01-03T05:04:34.800Z,2.73
2018-01-03T05:07:02.397Z,2.50
2018-01-03T05:09:29.993Z,2.60
2018-01-03T05:11:57.556Z,2.80
2018-01-03T05:14:25.136Z,2.50
2018-01-03T05:16:52.695Z,2.93
2018-01-03T05:19:20.240Z,3.07
2018-01-03T05:21:48.244Z,2.57
2018-01-03T05:24:15.847Z,2.47
2018-01-03T05:26:44.168Z,2.50
2018-01-03T05:29:12.066Z,2.37
2018-01-03T05:31:39.619Z,3.00
2018-01-03T05:34:07.172Z,2.90
2018-01-03T05:36:35.031Z,2.73
2018-01-03T05:39:02.616Z,3.63
2018-01-03T05:41:30.177Z,2.60
2018-01-03T05:43:58.257Z,2.40
2018-01-03T05:46:26.268Z,2.80
2018-01-03T05:48:53.832Z,2.90
2018-01-03T05:51:21.430Z,2.40
2018-01-03T05:53:49.028Z,3.00
2018-01-03T05:56:16.582Z,2.40
2018-01-03T05:58:45.258Z,2.27
2018-01-03T06:01:12.819Z,1.83
2018-01-03T06:03:40.381Z,2.93
2018-01-03T06:06:08.055Z,2.80
2018-01-03T06:08:36.488Z,2.60
2018-01-03T06:11:04.553Z,2.43
2018-01-03T06:13:32.143Z,1.97
2018-01-03T06:15:59.711Z,2.70
2018-01-03T06:18:27.275Z,2.37
2018-01-03T06:20:56.471Z,2.60
2018-01-03T06:23:24.077Z,2.43
2018-01-03T06:25:51.631Z,2.30
2018-01-03T06:28:19.225Z,1.63
2018-01-03T06:30:47.550Z,1.93
2018-01-03T06:33:15.496Z,2.07
2018-01-03T06:35:43.108Z,1.80
2018-01-03T06:38:10.653Z,2.10
2018-01-03T06:40:38.956Z,2.50
2018-01-03T06:43:06.943Z,2.10
2018-01-03T06:45:34.504Z,2.20
2018-01-03T06:48:02.478Z,1.90
2018-01-03T06:50:30.056Z,1.97
2018-01-03T06:52:58.314Z,2.00
2018-01-03T06:55:26.815Z,1.80
2018-01-03T06:57:54.872Z,1.87
2018-01-03T07:00:22.698Z,1.50
2018-01-03T07:02:50.282Z,1.50
2018-01-03T07:05:17.846Z,1.13
2018-01-03T07:07:45.454Z,1.70
2018-01-03T07:10:13.021Z,1.63
2018-01-03T07:12:41.372Z,1.10
2018-01-03T07:15:08.905Z,1.27
2018-01-03T07:17:36.444Z,1.10
2018-01-03T07:20:04.213Z,1.80
2018-01-03T07:22:31.775Z,1.20
2018-01-03T07:24:59.587Z,1.07
2018-01-03T07:27:27.186Z,1.17
2018-01-03T07:29:54.736Z,1.00
2018-01-03T07:32:23.045Z,1.10
2018-01-03T07:34:50.782Z,0.80
2018-01-03T07:37:18.868Z,0.97
2018-01-03T07:39:46.496Z,0.70
2018-01-03T07:42:14.107Z,0.83
2018-01-03T07:44:41.679Z,1.10
2018-01-03T07:47:09.221Z,1.10
2018-01-03T07:49:37.429Z,0.97
2018-01-03T07:52:05.810Z,0.80
2018-01-03T07:54:33.402Z,1.17
2018-01-03T07:57:01.130Z,0.90
2018-01-03T07:59:28.663Z,0.70
2018-01-03T08:02:01.322Z,1.20
2018-01-03T08:04:30.875Z,0.93
2018-01-03T08:06:59.174Z,1.30
2018-01-03T08:09:27.678Z,0.80
2018-01-03T08:11:56.131Z,0.87
2018-01-03T08:14:23.905Z,0.73
2018-01-03T08:16:51.493Z,0.80
2018-01-03T08:19:19.891Z,0.93
2018-01-03T08:22:26.111Z,0.50
2018-01-03T08:24:54.473Z,0.43
2018-01-03T08:27:21.995Z,0.70
2018-01-03T08:29:49.555Z,0.50
2018-01-03T08:32:18.060Z,0.60
2018-01-03T08:34:45.655Z,0.47
2018-01-03T08:37:13.780Z,0.50
2018-01-03T08:39:42.120Z,0.83
2018-01-03T08:42:10.793Z,0.50
2018-01-03T08:44:40.600Z,0.60
2018-01-03T08:47:08.289Z,0.50
2018-01-03T08:49:35.940Z,0.60
2018-01-03T08:52:04.998Z,0.50
2018-01-03T08:54:32.911Z,2.53
2018-01-03T08:57:00.519Z,0.73
2018-01-03T08:59:28.833Z,0.80
2018-01-03T09:01:56.799Z,0.60
2018-01-03T09:04:24.363Z,0.70
2018-01-03T09:06:51.922Z,0.70
2018-01-03T09:09:20.546Z,0.50
2018-01-03T09:11:48.531Z,1.03
2018-01-03T09:14:16.221Z,0.70
2018-01-03T09:16:44.399Z,0.73
2018-01-03T09:19:12.264Z,0.80
2018-01-03T09:21:40.426Z,0.60
2018-01-03T09:24:08.466Z,0.50
2018-01-03T09:26:37.105Z,0.73
2018-01-03T09:29:04.666Z,1.13
2018-01-03T09:31:32.342Z,0.80
2018-01-03T09:34:00.700Z,0.70
2018-01-03T09:36:28.399Z,0.70
2018-01-03T09:38:56.850Z,0.70
2018-01-03T09:41:24.435Z,0.80
2018-01-03T09:43:52.073Z,1.00
2018-01-03T09:46:20.749Z,0.87
2018-01-03T09:48:49.083Z,0.97
2018-01-03T09:51:18.290Z,0.80
2018-01-03T09:53:46.367Z,0.87
2018-01-03T09:56:15.424Z,1.00
2018-01-03T09:58:43.082Z,0.70
2018-01-03T10:01:10.973Z,0.97
2018-01-03T10:03:39.277Z,0.90
2018-01-03T10:06:07.181Z,0.73
2018-01-03T10:08:35.099Z,0.80
2018-01-03T10:11:03.526Z,0.70
2018-01-03T10:13:31.195Z,1.17
2018-01-03T10:15:59.865Z,1.10
2018-01-03T10:18:27.772Z,1.03
2018-01-03T10:20:56.205Z,0.60
2018-01-03T10:23:25.153Z,1.03
2018-01-03T10:25:53.668Z,0.97
2018-01-03T10:28:21.551Z,0.67
2018-01-03T10:30:49.273Z,0.83
2018-01-03T10:33:16.882Z,0.70
2018-01-03T10:35:44.410Z,0.80
2018-01-03T10:38:12.751Z,0.80
2018-01-03T10:40:40.547Z,0.60
2018-01-03T10:43:08.876Z,1.70
2018-01-03T10:45:36.457Z,1.43
2018-01-03T10:48:04.008Z,1.23
2018-01-03T10:50:31.576Z,0.67
2018-01-03T10:52:59.167Z,1.00
2018-01-03T10:55:28.279Z,0.70
2018-01-03T10:57:55.838Z,0.70
2018-01-03T11:00:24.854Z,0.90
2018-01-03T11:02:53.385Z,0.60
2018-01-03T11:05:21.809Z,1.00
2018-01-03T11:07:51.076Z,1.13
2018-01-03T11:10:18.696Z,0.90
2018-01-03T11:12:46.278Z,1.03
2018-01-03T11:15:14.178Z,0.93
2018-01-03T11:17:42.517Z,0.77
2018-01-03T11:20:10.221Z,0.57
2018-01-03T11:22:38.187Z,0.57
2018-01-03T11:25:06.519Z,0.90
2018-01-03T11:27:34.154Z,1.20
2018-01-03T11:30:01.800Z,1.00
2018-01-03T11:32:29.853Z,0.80
2018-01-03T11:34:57.444Z,0.83
2018-01-03T11:37:25.057Z,0.80
2018-01-03T11:39:53.481Z,1.00
2018-01-03T11:42:24.046Z,0.80
2018-01-03T11:44:51.723Z,1.10
2018-01-03T11:47:19.285Z,0.50
2018-01-03T11:49:46.867Z,0.80
2018-01-03T11:52:15.251Z,0.60
2018-01-03T11:54:43.744Z,0.90
2018-01-03T11:57:12.575Z,0.70
2018-01-03T11:59:40.187Z,1.00
2018-01-03T12:02:08.535Z,0.80
2018-01-03T12:04:36.105Z,1.13
2018-01-03T12:07:04.022Z,1.20
2018-01-03T12:09:32.039Z,0.70
2018-01-03T12:11:59.632Z,0.70
2018-01-03T12:14:27.349Z,0.80
2018-01-03T12:16:55.020Z,1.10
2018-01-03T12:19:22.632Z,1.17
2018-01-03T12:21:50.801Z,0.70
2018-01-03T12:24:18.469Z,1.00
2018-01-03T12:26:46.116Z,0.80
2018-01-03T12:29:15.061Z,1.47
2018-01-03T12:31:42.659Z,0.97
2018-01-03T12:34:10.216Z,0.90
2018-01-03T12:36:38.245Z,1.10
2018-01-03T12:39:05.815Z,1.00
2018-01-03T12:41:33.400Z,0.60
2018-01-03T12:44:01.006Z,0.90
2018-01-03T12:46:28.764Z,0.60
2018-01-03T12:48:56.409Z,3.30
2018-01-03T12:51:24.305Z,0.87
2018-01-03T12:53:52.832Z,1.13
2018-01-03T12:56:20.471Z,1.00
2018-01-03T12:58:48.169Z,0.97
2018-01-03T13:01:15.800Z,1.20
2018-01-03T13:03:43.427Z,1.00
2018-01-03T13:06:11.804Z,1.40
2018-01-03T13:08:40.142Z,1.00
2018-01-03T13:11:08.372Z,1.77
2018-01-03T13:13:35.995Z,0.90
2018-01-03T13:16:03.567Z,0.73
2018-01-03T13:18:31.178Z,1.70
2018-01-03T13:20:59.008Z,1.00
2018-01-03T13:23:28.036Z,0.90
2018-01-03T13:25:55.630Z,0.90
2018-01-03T13:28:23.247Z,1.20
2018-01-03T13:30:50.804Z,1.37
2018-01-03T13:33:18.433Z,1.20
2018-01-03T13:35:46.265Z,0.90
2018-01-03T13:38:13.862Z,1.63
2018-01-03T13:40:41.484Z,1.20
2018-01-03T13:43:09.276Z,1.03
2018-01-03T13:45:36.836Z,2.07
2018-01-03T13:48:05.070Z,0.70
2018-01-03T13:50:32.664Z,1.03
2018-01-03T13:53:00.587Z,1.77
2018-01-03T13:55:28.284Z,1.40
2018-01-03T13:57:58.603Z,1.60
2018-01-03T14:00:27.127Z,1.00
2018-01-03T14:02:55.480Z,1.33
2018-01-03T14:05:23.671Z,1.17
2018-01-03T14:07:53.059Z,1.40
2018-01-03T14:10:21.880Z,1.20
2018-01-03T14:12:51.046Z,1.53
2018-01-03T14:15:19.121Z,1.90
2018-01-03T14:17:46.704Z,1.70
2018-01-03T14:20:14.356Z,1.53
2018-01-03T14:22:42.160Z,1.67
2018-01-03T14:25:10.093Z,1.50
2018-01-03T14:27:37.992Z,1.20
2018-01-03T14:30:06.799Z,1.60
2018-01-03T14:32:34.591Z,1.27
2018-01-03T14:35:02.447Z,1.70
2018-01-03T14:37:30.274Z,1.57
2018-01-03T14:39:59.006Z,1.17
2018-01-03T14:42:27.625Z,1.60
2018-01-03T14:44:56.595Z,1.83
2018-01-03T14:47:24.226Z,1.50
2018-01-03T14:49:52.151Z,1.47
2018-01-03T14:52:22.743Z,1.30
2018-01-03T14:54:51.209Z,2.03
2018-01-03T14:57:20.102Z,1.63
2018-01-03T14:59:47.811Z,1.43
2018-01-03T15:02:17.286Z,3.30
2018-01-03T15:04:45.292Z,0.90
2018-01-03T15:07:16.951Z,1.23
2018-01-03T15:09:44.780Z,1.53
2018-01-03T15:12:13.877Z,1.47
2018-01-03T15:14:42.251Z,1.53
2018-01-03T15:17:10.027Z,1.40
2018-01-03T15:19:37.980Z,1.20
2018-01-03T15:22:06.912Z,1.27
2018-01-03T15:24:35.470Z,1.20
2018-01-03T15:27:05.072Z,1.30
2018-01-03T15:29:33.121Z,1.20
2018-01-03T15:32:01.404Z,1.97
2018-01-03T15:34:29.851Z,1.23
2018-01-03T15:36:57.822Z,1.73
2018-01-03T15:39:26.729Z,1.57
2018-01-03T15:41:55.613Z,1.33
2018-01-03T15:44:24.062Z,1.30
2018-01-03T15:46:51.638Z,1.53
2018-01-03T15:49:19.414Z,1.70
2018-01-03T15:51:48.089Z,1.40
2018-01-03T15:54:16.295Z,3.87
2018-01-03T15:56:44.759Z,1.50
2018-01-03T15:59:12.356Z,1.33
2018-01-03T16:01:39.938Z,2.00
2018-01-03T16:04:09.067Z,1.33
2018-01-03T16:06:37.475Z,1.33
2018-01-03T16:09:05.058Z,1.17
2018-01-03T16:11:33.614Z,2.10
2018-01-03T16:14:01.318Z,1.40
2018-01-03T16:16:30.518Z,2.77
2018-01-03T16:18:58.132Z,1.93
2018-01-03T16:21:26.483Z,1.43
2018-01-03T16:23:54.086Z,1.63
2018-01-03T16:26:21.708Z,1.50
2018-01-03T16:28:50.519Z,2.23
2018-01-03T16:31:18.118Z,1.50
2018-01-03T16:33:46.303Z,1.47
2018-01-03T16:36:14.219Z,1.80
2018-01-03T16:38:43.034Z,1.20
2018-01-03T16:41:10.833Z,2.73
2018-01-03T16:43:39.282Z,2.73
2018-01-03T16:46:07.143Z,1.73
2018-01-03T16:48:35.227Z,1.87
2018-01-03T16:51:02.812Z,2.20
2018-01-03T16:53:30.391Z,2.27
2018-01-03T16:55:58.010Z,1.67
2018-01-03T16:58:25.595Z,1.20
2018-01-03T17:00:53.173Z,2.10
2018-01-03T17:03:20.769Z,1.57
2018-01-03T17:05:49.908Z,1.83
2018-01-03T17:08:17.509Z,1.87
2018-01-03T17:10:45.096Z,2.00
2018-01-03T17:13:13.432Z,2.00
2018-01-03T17:15:41.032Z,1.60
2018-01-03T17:18:10.229Z,1.80
2018-01-03T17:20:37.865Z,1.73
2018-01-03T17:23:05.456Z,1.47
2018-01-03T17:25:33.578Z,1.90
2018-01-03T17:28:01.509Z,2.33
2018-01-03T17:30:29.929Z,1.77
2018-01-03T17:32:58.478Z,1.80
2018-01-03T17:35:26.820Z,1.67
2018-01-03T17:37:55.090Z,1.83
2018-01-03T17:40:24.135Z,1.87
2018-01-03T17:42:52.484Z,3.57
2018-01-03T17:45:21.387Z,2.10
2018-01-03T17:47:50.676Z,2.00
2018-01-03T17:50:18.877Z,2.70
2018-01-03T17:52:47.664Z,1.50
2018-01-03T17:55:17.907Z,2.10
2018-01-03T17:57:46.723Z,2.10
2018-01-03T18:00:15.719Z,2.10
2018-01-03T18:02:45.100Z,2.30
2018-01-03T18:05:13.261Z,1.57
2018-01-03T18:07:42.743Z,1.80
2018-01-03T18:10:11.089Z,2.13
2018-01-03T18:12:40.206Z,2.57
2018-01-03T18:15:08.591Z,3.30
2018-01-03T18:17:40.553Z,2.30
2018-01-03T18:20:10.327Z,2.50
2018-01-03T18:22:39.571Z,3.30
2018-01-03T18:25:08.032Z,2.67
2018-01-03T18:27:36.038Z,1.90
2018-01-03T18:30:04.741Z,1.80
2018-01-03T18:32:34.417Z,3.00
2018-01-03T18:35:04.404Z,2.40
2018-01-03T18:37:36.241Z,2.27
2018-01-03T18:40:05.742Z,2.90
2018-01-03T18:42:34.730Z,3.47
2018-01-03T18:45:04.489Z,2.67
2018-01-03T18:47:32.646Z,3.10
2018-01-03T18:50:01.725Z,1.70
2018-01-03T18:52:30.227Z,3.07
2018-01-03T18:54:59.141Z,2.10
2018-01-03T18:57:27.191Z,2.47
2018-01-03T18:59:58.225Z,2.90
2018-01-03T19:02:26.344Z,2.10
2018-01-03T19:04:54.329Z,2.00
2018-01-03T19:07:24.705Z,3.30
2018-01-03T19:09:52.620Z,3.03
2018-01-03T19:12:21.420Z,2.43
2018-01-03T19:14:49.304Z,3.20
2018-01-03T19:17:16.935Z,3.17
2018-01-03T19:19:44.648Z,4.00
2018-01-03T19:22:13.752Z,1.60
2018-01-03T19:24:41.346Z,4.97
2018-01-03T19:27:08.954Z,2.07
2018-01-03T19:29:36.568Z,2.30
2018-01-03T19:32:04.624Z,2.00
2018-01-03T19:34:32.245Z,2.57
2018-01-03T19:37:00.755Z,2.67
2018-01-03T19:39:28.443Z,1.80
2018-01-03T19:41:56.039Z,2.50
2018-01-03T19:44:24.246Z,2.93
2018-01-03T19:46:52.609Z,1.93
2018-01-03T19:55:45.436Z,1.30
2018-01-03T20:10:37.670Z,2.83
2018-01-03T20:13:27.171Z,0.87
2018-01-03T20:15:55.207Z,1.10
2018-01-03T20:18:22.925Z,1.60
2018-01-03T20:20:50.801Z,1.27
2018-01-03T20:23:19.803Z,1.77
2018-01-03T20:25:48.287Z,1.43
2018-01-03T20:28:15.927Z,2.10
2018-01-03T20:30:43.933Z,1.90
2018-01-03T20:33:11.629Z,1.80
2018-01-03T20:35:39.226Z,2.00
2018-01-03T20:38:08.091Z,1.57
2018-01-03T20:40:36.042Z,1.70
2018-01-03T20:43:05.571Z,1.50
2018-01-03T20:45:33.284Z,1.93
2018-01-03T20:48:00.973Z,2.43
2018-01-03T20:50:28.877Z,3.03
2018-01-03T20:52:56.826Z,1.90
2018-01-03T20:55:24.703Z,2.40
2018-01-03T20:57:52.604Z,2.30
2018-01-03T21:00:21.151Z,2.60
2018-01-03T21:02:49.123Z,3.40
2018-01-03T21:05:17.002Z,2.10
2018-01-03T21:07:44.993Z,1.60
2018-01-03T21:10:13.645Z,2.60
2018-01-03T21:12:41.322Z,2.43
2018-01-03T21:15:09.333Z,3.27
2018-01-03T21:17:38.037Z,3.17
2018-01-03T21:20:07.173Z,2.00
2018-01-03T21:22:34.828Z,1.70
2018-01-03T21:25:02.442Z,1.60
2018-01-03T21:27:30.776Z,2.27
2018-01-03T21:29:58.760Z,1.80
2018-01-03T21:32:26.366Z,3.80
2018-01-03T21:34:54.014Z,3.47
2018-01-03T21:37:22.493Z,1.73
2018-01-03T21:39:50.984Z,1.70
2018-01-03T21:42:19.559Z,1.77
2018-01-03T21:44:47.359Z,1.77
2018-01-03T21:47:16.275Z,2.57
2018-01-03T21:49:44.665Z,2.80
2018-01-03T21:52:13.417Z,2.80
2018-01-03T21:54:41.225Z,2.50
2018-01-03T21:57:08.906Z,2.17
2018-01-03T21:59:37.279Z,1.73
2018-01-03T22:02:04.904Z,2.20
2018-01-03T22:04:32.705Z,2.77
2018-01-03T22:07:00.466Z,2.87
2018-01-03T22:09:28.255Z,2.90
2018-01-03T22:11:56.585Z,2.57
2018-01-03T22:14:24.622Z,3.40
2018-01-03T22:16:52.267Z,1.97
2018-01-03T22:19:22.150Z,2.30
2018-01-03T22:21:50.043Z,3.27
2018-01-03T22:24:17.620Z,1.93
2018-01-03T22:26:45.944Z,2.30
2018-01-03T22:29:14.582Z,2.00
2018-01-03T22:31:42.912Z,2.10
2018-01-03T22:34:10.515Z,2.00
2018-01-03T22:36:38.865Z,3.27
2018-01-03T22:39:06.473Z,1.80
2018-01-03T22:41:34.038Z,2.77
2018-01-03T22:44:01.855Z,2.07
2018-01-03T22:46:29.451Z,1.90
2018-01-03T22:48:57.043Z,1.90
2018-01-03T22:51:24.703Z,1.87
2018-01-03T22:53:52.269Z,2.10
2018-01-03T22:56:19.842Z,1.60
2018-01-03T22:58:47.463Z,1.67
2018-01-03T23:01:15.029Z,3.10
2018-01-03T23:03:42.617Z,1.90
2018-01-03T23:06:10.207Z,2.40
2018-01-03T23:08:38.152Z,1.80
2018-01-03T23:11:05.762Z,2.13
2018-01-03T23:13:34.433Z,3.67
2018-01-03T23:16:01.996Z,2.30
2018-01-03T23:18:29.552Z,1.80
2018-01-03T23:20:57.319Z,2.20
2018-01-03T23:23:24.894Z,1.33
2018-01-03T23:25:52.456Z,2.07
2018-01-03T23:28:20.044Z,2.43
2018-01-03T23:30:47.629Z,2.30
2018-01-03T23:33:15.258Z,1.73
2018-01-03T23:35:42.877Z,2.90
2018-01-03T23:38:10.457Z,1.50
2018-01-03T23:40:38.813Z,2.30
2018-01-03T23:43:06.707Z,2.30
2018-01-03T23:45:35.084Z,1.97
2018-01-03T23:48:03.475Z,1.43
2018-01-03T23:50:31.867Z,1.70
2018-01-03T23:52:59.452Z,1.50
2018-01-03T23:55:27.220Z,2.60
2018-01-03T23:57:55.032Z,3.37
